Time;durP1;ratioP1;P1;durP2;ratioP2;P2;SDS_P1;SDS_P2;PMS_P1;PMS_P2;Temp;Humidity;BMP_temperature;BMP_pressure;BME280_temperature;BME280_humidity;BME280_pressure;Samples;Min_cycle;Max_cycle;Signal;HPM_P1;HPM_P2
2023/10/20 00:00:20;;;;;;;0.80;0.70;;;;;;;13.71;100.00;95194.91;5132121;28;20600;-58
2023/10/20 00:02:49;;;;;;;0.50;0.40;;;;;;;13.73;100.00;95202.63;5132042;28;20457;-58
2023/10/20 00:05:19;;;;;;;3.33;0.80;;;;;;;13.77;100.00;95199.06;5132090;28;20450;-57
2023/10/20 00:07:47;;;;;;;0.40;0.30;;;;;;;13.80;100.00;95203.03;5132362;28;20820;-57
2023/10/20 00:10:16;;;;;;;0.90;0.53;;;;;;;13.87;100.00;95204.22;5131480;28;21079;-57
2023/10/20 00:12:45;;;;;;;0.70;0.60;;;;;;;13.83;100.00;95205.91;5132114;28;20434;-58
2023/10/20 00:15:14;;;;;;;0.40;0.30;;;;;;;13.87;100.00;95198.91;5132147;28;20465;-58
2023/10/20 00:17:45;;;;;;;0.50;0.40;;;;;;;13.58;100.00;95193.00;5131796;28;20821;-58
2023/10/20 00:20:14;;;;;;;0.50;0.30;;;;;;;13.59;100.00;95202.56;5131632;28;20441;-57
2023/10/20 00:22:44;;;;;;;0.40;0.30;;;;;;;13.63;100.00;95198.25;5131519;28;20951;-58
2023/10/20 00:25:12;;;;;;;0.40;0.30;;;;;;;13.60;100.00;95198.81;5131513;28;20440;-57
2023/10/20 00:27:42;;;;;;;0.50;0.40;;;;;;;13.49;100.00;95192.06;5131657;28;20474;-57
2023/10/20 00:30:11;;;;;;;0.40;0.33;;;;;;;13.71;100.00;95200.22;5131700;27;20477;-58
2023/10/20 00:32:40;;;;;;;0.40;0.30;;;;;;;13.69;100.00;95189.06;5134676;27;20487;-57
2023/10/20 00:35:13;;;;;;;0.50;0.40;;;;;;;13.59;100.00;95188.44;5134730;27;20958;-57
2023/10/20 00:37:44;;;;;;;0.40;0.30;;;;;;;13.66;100.00;95191.56;5135315;27;20491;-57
2023/10/20 00:40:13;;;;;;;0.70;0.67;;;;;;;13.75;100.00;95198.59;5135699;27;20438;-58
2023/10/20 00:42:42;;;;;;;0.40;0.40;;;;;;;13.68;100.00;95194.72;5135207;27;20438;-57
2023/10/20 00:45:12;;;;;;;0.40;0.30;;;;;;;13.59;100.00;95201.75;5135761;27;20441;-58
2023/10/20 00:47:41;;;;;;;0.40;0.30;;;;;;;13.38;100.00;95193.31;5135058;27;20938;-58
2023/10/20 00:50:13;;;;;;;0.50;0.40;;;;;;;13.17;100.00;95184.03;5135205;27;21033;-58
2023/10/20 00:52:45;;;;;;;0.50;0.30;;;;;;;13.05;100.00;95199.63;5134143;27;20951;-58
2023/10/20 00:55:14;;;;;;;0.83;0.83;;;;;;;13.01;100.00;95212.69;5135288;27;20530;-58
2023/10/20 00:57:45;;;;;;;0.50;0.30;;;;;;;12.80;100.00;95199.94;5134763;27;20495;-58
2023/10/20 01:00:14;;;;;;;3.90;0.50;;;;;;;12.69;100.00;95197.41;5135356;27;20815;-58
2023/10/20 01:02:42;;;;;;;0.43;0.27;;;;;;;12.70;100.00;95201.63;5134673;27;20442;-58
2023/10/20 01:05:14;;;;;;;0.60;0.30;;;;;;;12.58;100.00;95203.13;5135360;27;20430;-58
2023/10/20 01:07:44;;;;;;;0.40;0.30;;;;;;;12.60;100.00;95206.28;5108024;27;20855;-58
2023/10/20 01:10:13;;;;;;;1.30;0.70;;;;;;;11.75;100.00;95202.66;5134640;27;20466;-57
2023/10/20 01:12:42;;;;;;;0.63;0.60;;;;;;;11.88;100.00;95200.16;5135310;27;20470;-58
2023/10/20 01:15:13;;;;;;;0.60;0.60;;;;;;;11.65;100.00;95200.84;5134359;27;20842;-57
2023/10/20 01:17:42;;;;;;;0.57;0.30;;;;;;;11.93;100.00;95204.63;5134564;27;20431;-58
2023/10/20 01:20:12;;;;;;;0.50;0.50;;;;;;;11.66;100.00;95201.66;5134420;27;20454;-57
2023/10/20 01:22:41;;;;;;;0.40;0.30;;;;;;;12.08;100.00;95209.78;5134722;27;20504;-58
2023/10/20 01:25:12;;;;;;;0.50;0.40;;;;;;;12.37;100.00;95207.09;5134154;27;20445;-58
2023/10/20 01:27:41;;;;;;;0.40;0.27;;;;;;;12.49;100.00;95202.19;5134155;27;20485;-58
2023/10/20 01:30:11;;;;;;;0.60;0.43;;;;;;;12.53;100.00;95211.97;5134020;27;20470;-58
2023/10/20 01:32:41;;;;;;;0.40;0.20;;;;;;;12.96;100.00;95222.59;5134316;27;20473;-58
2023/10/20 01:35:10;;;;;;;0.50;0.30;;;;;;;12.56;100.00;95206.06;5133828;27;20965;-58
2023/10/20 01:37:38;;;;;;;0.50;0.40;;;;;;;12.60;100.00;95211.59;5134479;27;20434;-58
2023/10/20 01:40:09;;;;;;;0.40;0.20;;;;;;;12.50;100.00;95199.22;5132810;27;20438;-59
2023/10/20 01:42:39;;;;;;;0.47;0.40;;;;;;;12.44;100.00;95200.38;5133254;27;20513;-58
2023/10/20 01:45:09;;;;;;;0.43;0.30;;;;;;;12.82;100.00;95211.09;5134614;27;20462;-58
2023/10/20 01:47:38;;;;;;;0.50;0.30;;;;;;;12.77;100.00;95210.06;5133883;27;20450;-58
2023/10/20 01:50:07;;;;;;;0.43;0.27;;;;;;;12.85;100.00;95208.63;5133941;27;20441;-58
2023/10/20 01:52:37;;;;;;;0.50;0.37;;;;;;;12.89;100.00;95211.53;5133688;27;20439;-57
2023/10/20 01:55:06;;;;;;;0.40;0.20;;;;;;;12.88;100.00;95197.44;5134180;27;20459;-57
2023/10/20 01:57:35;;;;;;;0.40;0.20;;;;;;;13.19;100.00;95205.81;5133780;27;20441;-57
2023/10/20 02:00:08;;;;;;;0.50;0.40;;;;;;;12.62;100.00;95202.25;5133941;27;20434;-58
2023/10/20 02:02:36;;;;;;;0.40;0.30;;;;;;;12.98;100.00;95207.16;5133492;27;20439;-57
2023/10/20 02:05:08;;;;;;;1.03;1.03;;;;;;;12.75;100.00;95198.91;5133959;27;20997;-57
2023/10/20 02:07:37;;;;;;;0.40;0.30;;;;;;;12.75;100.00;95208.75;5133295;27;20426;-57
2023/10/20 02:10:06;;;;;;;0.60;0.40;;;;;;;12.71;100.00;95197.13;5133247;27;20462;-57
2023/10/20 02:12:35;;;;;;;0.40;0.30;;;;;;;12.96;100.00;95201.31;5106565;27;20474;-57
2023/10/20 02:15:07;;;;;;;1.17;1.03;;;;;;;12.88;100.00;95191.31;5133499;27;20438;-57
2023/10/20 02:17:36;;;;;;;3.30;1.37;;;;;;;12.97;100.00;95205.56;5133334;27;20453;-58
2023/10/20 02:20:06;;;;;;;0.80;0.70;;;;;;;13.21;100.00;95201.00;5133073;27;20517;-56
2023/10/20 02:22:34;;;;;;;1.00;1.00;;;;;;;13.16;100.00;95203.72;5133619;27;20811;-57
2023/10/20 02:25:03;;;;;;;0.77;0.77;;;;;;;13.14;100.00;95200.56;5133113;27;20932;-57
2023/10/20 02:27:32;;;;;;;0.40;0.30;;;;;;;12.79;100.00;95193.84;5133370;27;20553;-57
2023/10/20 02:30:00;;;;;;;2.00;0.97;;;;;;;12.92;100.00;95195.78;5132919;27;20434;-57
2023/10/20 02:32:30;;;;;;;1.73;1.10;;;;;;;13.11;100.00;95201.13;5133503;27;20474;-57
2023/10/20 02:35:00;;;;;;;0.40;0.40;;;;;;;13.21;100.00;95193.81;5132930;27;20450;-57
2023/10/20 02:37:28;;;;;;;1.03;1.03;;;;;;;12.99;100.00;95190.09;5133284;27;20474;-57
2023/10/20 02:39:57;;;;;;;0.60;0.53;;;;;;;12.67;100.00;95188.91;5133222;27;20439;-57
2023/10/20 02:42:25;;;;;;;0.50;0.40;;;;;;;12.67;100.00;95188.91;5133194;27;20430;-57
2023/10/20 02:44:54;;;;;;;2.40;1.03;;;;;;;12.88;100.00;95194.75;5132842;27;20434;-57
2023/10/20 02:47:22;;;;;;;2.93;0.50;;;;;;;13.00;100.00;95197.81;5133133;27;20491;-57
2023/10/20 02:49:55;;;;;;;0.63;0.50;;;;;;;12.87;100.00;95193.19;5132997;27;20868;-57
2023/10/20 02:52:24;;;;;;;0.73;0.57;;;;;;;13.10;100.00;95188.94;5132578;27;20474;-56
2023/10/20 02:54:54;;;;;;;2.40;0.60;;;;;;;13.08;100.00;95181.22;5132337;27;20499;-57
2023/10/20 02:57:23;;;;;;;0.43;0.40;;;;;;;12.99;100.00;95185.59;5132141;27;20435;-56
2023/10/20 02:59:51;;;;;;;0.90;0.50;;;;;;;13.06;100.00;95201.19;5132710;27;20487;-57
2023/10/20 03:02:22;;;;;;;3.40;0.87;;;;;;;13.08;100.00;95196.41;5132094;27;20450;-57
2023/10/20 03:04:54;;;;;;;1.03;1.03;;;;;;;13.02;100.00;95192.19;5132792;27;20434;-58
2023/10/20 03:07:27;;;;;;;0.67;0.67;;;;;;;12.77;100.00;95164.09;5132215;27;20441;-58
2023/10/20 03:09:57;;;;;;;1.20;0.30;;;;;;;12.80;100.00;95174.13;5132538;27;20469;-57
2023/10/20 03:12:25;;;;;;;1.00;1.00;;;;;;;13.10;100.00;95195.06;5131591;27;20465;-57
2023/10/20 03:14:53;;;;;;;1.00;0.80;;;;;;;13.16;100.00;95191.22;5132428;27;20439;-57
2023/10/20 03:17:22;;;;;;;0.63;0.63;;;;;;;12.89;100.00;95183.06;5131813;27;20434;-57
2023/10/20 03:19:51;;;;;;;0.80;0.60;;;;;;;13.20;100.00;95194.91;5132112;27;20442;-58
2023/10/20 03:22:21;;;;;;;0.57;0.40;;;;;;;13.35;100.00;95192.03;5118500;27;20469;-57
2023/10/20 03:24:49;;;;;;;1.43;0.53;;;;;;;13.27;100.00;95195.34;5131760;27;20434;-57
2023/10/20 03:27:18;;;;;;;1.37;1.27;;;;;;;13.43;100.00;95193.25;5131366;28;20458;-57
2023/10/20 03:29:46;;;;;;;0.40;0.40;;;;;;;13.29;100.00;95192.38;5132148;28;20521;-58
2023/10/20 03:32:15;;;;;;;0.87;0.50;;;;;;;13.46;100.00;95197.19;5131874;28;20481;-57
2023/10/20 03:34:44;;;;;;;0.50;0.40;;;;;;;13.45;100.00;95195.59;5131691;28;20533;-57
2023/10/20 03:37:13;;;;;;;0.60;0.50;;;;;;;13.45;100.00;95192.94;5131626;28;20810;-57
2023/10/20 03:39:44;;;;;;;0.70;0.40;;;;;;;13.46;100.00;95191.88;5131484;28;20446;-57
2023/10/20 03:42:13;;;;;;;0.90;0.60;;;;;;;13.20;100.00;95207.41;5132189;28;20506;-56
2023/10/20 03:44:43;;;;;;;0.77;0.77;;;;;;;13.02;100.00;95181.56;5131376;28;20431;-57
2023/10/20 03:47:13;;;;;;;0.40;0.30;;;;;;;13.20;100.00;95215.41;5131926;28;20517;-56
2023/10/20 03:49:42;;;;;;;0.50;0.40;;;;;;;13.03;100.00;95183.91;5131673;28;20458;-57
2023/10/20 03:52:13;;;;;;;0.40;0.40;;;;;;;13.26;100.00;95198.25;5132143;28;20474;-56
2023/10/20 03:54:44;;;;;;;0.50;0.30;;;;;;;13.30;100.00;95192.09;5131501;28;20430;-57
2023/10/20 03:57:15;;;;;;;0.50;0.40;;;;;;;13.17;100.00;95182.16;5131888;28;20500;-56
2023/10/20 03:59:46;;;;;;;0.50;0.40;;;;;;;13.24;100.00;95190.59;5132038;28;20430;-56
2023/10/20 04:02:15;;;;;;;0.73;0.73;;;;;;;13.18;100.00;95185.63;5131710;28;20439;-55
2023/10/20 04:04:44;;;;;;;0.47;0.40;;;;;;;13.27;100.00;95189.22;5131611;27;20462;-56
2023/10/20 04:07:12;;;;;;;0.90;0.53;;;;;;;13.37;100.00;95194.38;5133867;27;20441;-56
2023/10/20 04:09:41;;;;;;;1.40;1.10;;;;;;;12.70;100.00;95171.59;5135570;27;20438;-57
2023/10/20 04:12:11;;;;;;;0.53;0.47;;;;;;;12.36;100.00;95189.56;5135268;27;20527;-56
2023/10/20 04:14:39;;;;;;;0.60;0.47;;;;;;;12.56;100.00;95192.00;5135205;27;20486;-56
2023/10/20 04:17:08;;;;;;;0.70;0.70;;;;;;;12.52;100.00;95190.97;5135669;27;20434;-56
2023/10/20 04:19:36;;;;;;;0.40;0.30;;;;;;;12.51;100.00;95192.84;5135354;27;20516;-56
2023/10/20 04:22:12;;;;;;;0.50;0.30;;;;;;;12.46;100.00;95200.09;5135825;27;20804;-56
2023/10/20 04:24:44;;;;;;;1.20;0.80;;;;;;;12.19;100.00;95198.00;5135379;27;20437;-57
2023/10/20 04:27:21;;;;;;;0.50;0.47;;;;;;;12.36;100.00;95194.88;5135343;27;20481;-57
2023/10/20 04:43:41;;;;;;;0.50;0.30;;;;;;;12.81;100.00;95177.56;5134602;27;20521;-57
2023/10/20 04:49:28;;;;;;;0.60;0.50;;;;;;;12.43;100.00;95180.19;5135295;27;20846;-56
2023/10/20 04:54:50;;;;;;;0.50;0.30;;;;;;;12.52;100.00;95185.66;5132788;27;20442;-56
2023/10/20 04:57:35;;;;;;;0.40;0.30;;;;;;;12.46;100.00;95181.47;5134661;27;20439;-56
2023/10/20 05:00:34;;;;;;;0.70;0.60;;;;;;;12.51;100.00;95192.06;5134810;27;20939;-56
2023/10/20 05:05:58;;;;;;;0.63;0.57;;;;;;;12.43;100.00;95196.13;5134489;27;20795;-56
2023/10/20 05:08:28;;;;;;;0.57;0.57;;;;;;;12.53;100.00;95195.22;5134966;27;20430;-56
2023/10/20 05:10:57;;;;;;;0.40;0.30;;;;;;;12.67;100.00;95191.56;5133938;27;20480;-57
2023/10/20 05:13:25;;;;;;;0.57;0.40;;;;;;;12.79;100.00;95198.34;5134569;27;20474;-56
2023/10/20 05:15:55;;;;;;;0.50;0.50;;;;;;;12.77;100.00;95197.84;5107991;27;20435;-56
2023/10/20 05:18:23;;;;;;;0.40;0.40;;;;;;;12.95;100.00;95191.78;5133542;27;20465;-56
2023/10/20 05:20:52;;;;;;;2.93;2.73;;;;;;;12.92;100.00;95192.34;5134365;27;20841;-56
2023/10/20 05:23:21;;;;;;;0.60;0.40;;;;;;;12.73;100.00;95194.97;5131779;27;20798;-56
2023/10/20 05:25:50;;;;;;;0.70;0.40;;;;;;;12.42;100.00;95197.19;5125868;27;20858;-56
2023/10/20 05:28:19;;;;;;;0.50;0.33;;;;;;;12.70;100.00;95191.00;5133888;27;20542;-56
2023/10/20 05:30:47;;;;;;;0.57;0.57;;;;;;;12.94;100.00;95193.63;5133833;27;20483;-56
2023/10/20 05:33:17;;;;;;;0.40;0.40;;;;;;;12.73;100.00;95193.09;5134001;27;20486;-56
2023/10/20 05:35:46;;;;;;;1.17;0.40;;;;;;;13.02;100.00;95186.88;5134528;27;20822;-56
2023/10/20 05:38:15;;;;;;;4.53;0.50;;;;;;;13.18;100.00;95186.41;5134272;27;20440;-56
2023/10/20 05:40:43;;;;;;;0.77;0.60;;;;;;;12.81;100.00;95188.22;5134302;27;20446;-56
2023/10/20 05:43:12;;;;;;;0.70;0.40;;;;;;;12.81;100.00;95197.00;5134149;27;20451;-56
2023/10/20 05:45:41;;;;;;;0.70;0.40;;;;;;;12.58;100.00;95198.59;5133714;27;20468;-56
2023/10/20 05:48:10;;;;;;;1.67;0.80;;;;;;;12.20;100.00;95188.13;5134005;27;20478;-56
2023/10/20 05:50:40;;;;;;;0.50;0.40;;;;;;;12.64;100.00;95200.13;5133767;27;20529;-56
2023/10/20 05:53:10;;;;;;;0.93;0.83;;;;;;;13.12;100.00;95198.22;5107473;27;21014;-56
2023/10/20 05:55:38;;;;;;;0.50;0.30;;;;;;;13.36;100.00;95198.13;5132794;27;20438;-56
2023/10/20 05:58:07;;;;;;;0.50;0.40;;;;;;;13.48;100.00;95189.69;5133057;27;20912;-56
2023/10/20 06:00:36;;;;;;;0.40;0.33;;;;;;;13.46;100.00;95147.38;5133488;27;20503;-56
2023/10/20 06:03:25;;;;;;;0.40;0.40;;;;;;;13.74;100.00;95201.50;5133626;27;20438;-56
2023/10/20 06:06:00;;;;;;;0.60;0.53;;;;;;;13.66;100.00;95202.22;5132988;27;20431;-56
2023/10/20 06:08:30;;;;;;;0.50;0.40;;;;;;;13.73;100.00;95208.75;5133761;27;20856;-56
2023/10/20 06:11:03;;;;;;;0.60;0.60;;;;;;;13.62;100.00;95198.53;5133609;27;20973;-56
2023/10/20 06:13:32;;;;;;;0.73;0.73;;;;;;;13.57;100.00;95188.75;5132814;27;20476;-56
2023/10/20 06:16:08;;;;;;;0.90;0.83;;;;;;;13.91;100.00;95215.09;5133982;27;20441;-56
2023/10/20 06:18:38;;;;;;;1.97;0.80;;;;;;;13.72;100.00;95217.81;5133399;27;20462;-57
2023/10/20 06:21:12;;;;;;;0.40;0.33;;;;;;;13.63;100.00;95229.41;5133026;27;20439;-56
2023/10/20 06:23:41;;;;;;;0.93;0.60;;;;;;;13.85;100.00;95224.25;5133238;27;20426;-57
2023/10/20 06:26:10;;;;;;;1.17;1.07;;;;;;;14.25;100.00;95233.44;5133156;27;20574;-56
2023/10/20 06:28:39;;;;;;;0.60;0.60;;;;;;;14.08;100.00;95246.53;5132569;27;20877;-56
2023/10/20 06:31:27;;;;;;;0.57;0.50;;;;;;;13.33;100.00;95231.44;5132492;27;20435;-57
2023/10/20 06:34:00;;;;;;;0.60;0.57;;;;;;;13.19;100.00;95230.56;5132990;27;20486;-57
2023/10/20 06:36:32;;;;;;;0.50;0.50;;;;;;;13.54;100.00;95220.47;5133059;27;20446;-56
2023/10/20 06:39:03;;;;;;;0.67;0.53;;;;;;;14.09;100.00;95232.91;5133226;27;20427;-57
2023/10/20 06:41:32;;;;;;;0.60;0.60;;;;;;;14.41;100.00;95237.44;5132443;27;20514;-57
2023/10/20 06:44:00;;;;;;;1.57;1.03;;;;;;;14.35;100.00;95234.06;5132560;27;20525;-57
2023/10/20 06:46:29;;;;;;;1.17;0.70;;;;;;;14.59;100.00;95234.69;5132732;27;20439;-56
2023/10/20 06:48:58;;;;;;;0.83;0.83;;;;;;;14.47;100.00;95236.28;5133316;27;20442;-57
2023/10/20 06:51:26;;;;;;;0.50;0.40;;;;;;;14.69;100.00;95241.72;5132028;27;20438;-58
2023/10/20 06:53:56;;;;;;;0.87;0.70;;;;;;;14.57;100.00;95236.09;5132761;27;20915;-57
2023/10/20 06:56:25;;;;;;;0.93;0.83;;;;;;;14.32;100.00;95247.22;5132530;27;20830;-57
2023/10/20 06:58:56;;;;;;;0.80;0.80;;;;;;;14.12;100.00;95247.50;5123330;27;20438;-58
2023/10/20 07:01:26;;;;;;;1.70;1.60;;;;;;;14.12;100.00;95252.84;5106336;27;20483;-58
2023/10/20 07:03:55;;;;;;;0.73;0.73;;;;;;;14.18;100.00;95235.69;5123061;27;20462;-58
2023/10/20 07:06:23;;;;;;;1.10;1.10;;;;;;;14.32;100.00;95250.66;5132668;27;20867;-58
2023/10/20 07:08:52;;;;;;;0.90;0.70;;;;;;;14.39;100.00;95252.94;5132587;27;20538;-59
2023/10/20 07:11:24;;;;;;;0.50;0.33;;;;;;;14.33;100.00;95256.78;5133020;27;20495;-59
2023/10/20 07:13:52;;;;;;;2.83;0.90;;;;;;;14.60;100.00;95257.59;5106400;27;20470;-58
2023/10/20 07:16:21;;;;;;;0.60;0.57;;;;;;;14.79;100.00;95262.84;5132480;27;20459;-58
2023/10/20 07:18:49;;;;;;;0.80;0.80;;;;;;;15.16;100.00;95267.97;5132322;27;20483;-59
2023/10/20 07:21:18;;;;;;;1.13;0.90;;;;;;;14.73;100.00;95264.03;5132097;27;20438;-58
2023/10/20 07:23:46;;;;;;;1.73;1.63;;;;;;;14.70;100.00;95264.63;5131820;27;20435;-58
2023/10/20 07:26:17;;;;;;;0.70;0.70;;;;;;;14.78;100.00;95255.94;5131354;27;20975;-58
2023/10/20 07:28:48;;;;;;;1.17;1.07;;;;;;;15.03;100.00;95267.97;5132240;28;20946;-59
2023/10/20 07:31:21;;;;;;;0.83;0.83;;;;;;;14.72;100.00;95257.13;5132012;28;20900;-58
2023/10/20 07:33:50;;;;;;;0.77;0.40;;;;;;;15.44;100.00;95267.91;5132273;28;20593;-59
2023/10/20 07:36:19;;;;;;;1.43;0.60;;;;;;;15.25;100.00;95265.41;5132053;28;20430;-58
2023/10/20 07:38:47;;;;;;;0.70;0.30;;;;;;;15.80;100.00;95272.22;5132313;28;20462;-59
2023/10/20 07:41:17;;;;;;;0.80;0.60;;;;;;;15.56;100.00;95266.34;5134483;27;20426;-59
2023/10/20 07:43:47;;;;;;;1.03;1.03;;;;;;;15.86;100.00;95265.63;5135814;27;20434;-58
2023/10/20 07:46:16;;;;;;;2.97;0.87;;;;;;;15.76;100.00;95265.09;5136395;27;20435;-58
2023/10/20 07:48:46;;;;;;;2.10;0.50;;;;;;;15.29;100.00;95269.03;5136781;27;20874;-58
2023/10/20 07:51:14;;;;;;;0.50;0.40;;;;;;;15.19;100.00;95278.06;5136153;27;20472;-57
2023/10/20 07:53:43;;;;;;;0.77;0.77;;;;;;;15.44;100.00;95259.91;5136583;27;20466;-59
2023/10/20 07:56:11;;;;;;;1.10;0.90;;;;;;;15.64;100.00;95259.47;5135898;27;20479;-56
2023/10/20 07:58:40;;;;;;;0.40;0.33;;;;;;;16.02;100.00;95271.41;5136273;27;20852;-55
2023/10/20 08:01:10;;;;;;;1.00;0.60;;;;;;;16.39;100.00;95263.00;5135527;27;21031;-62
2023/10/20 08:03:40;;;;;;;0.50;0.40;;;;;;;16.72;98.83;95270.75;5135866;27;20434;-59
2023/10/20 08:06:09;;;;;;;0.87;0.87;;;;;;;16.21;100.00;95271.22;5109993;27;20860;-60
2023/10/20 08:08:38;;;;;;;0.80;0.80;;;;;;;16.24;100.00;95266.06;5136341;27;20551;-60
2023/10/20 08:11:07;;;;;;;0.80;0.80;;;;;;;16.16;100.00;95248.09;5135964;27;20445;-59
2023/10/20 08:13:36;;;;;;;0.60;0.60;;;;;;;16.05;100.00;95273.47;5135785;27;20430;-59
2023/10/20 08:16:06;;;;;;;1.67;0.80;;;;;;;15.75;100.00;95277.66;5136119;27;20509;-59
2023/10/20 08:18:37;;;;;;;0.80;0.50;;;;;;;15.78;100.00;95273.59;5135519;27;20438;-59
2023/10/20 08:21:07;;;;;;;1.70;1.60;;;;;;;15.82;100.00;95279.91;5135911;27;20430;-59
2023/10/20 08:23:37;;;;;;;0.83;0.60;;;;;;;16.16;100.00;95282.06;5135376;27;20430;-59
2023/10/20 08:26:06;;;;;;;0.63;0.63;;;;;;;16.11;100.00;95279.50;5135715;27;20504;-60
2023/10/20 08:28:37;;;;;;;1.10;1.00;;;;;;;16.40;100.00;95285.19;5135690;27;20457;-60
2023/10/20 08:31:07;;;;;;;0.93;0.73;;;;;;;16.14;100.00;95286.94;5135093;27;20458;-59
2023/10/20 08:33:38;;;;;;;0.60;0.40;;;;;;;16.35;100.00;95286.09;5135267;27;20430;-59
2023/10/20 08:36:12;;;;;;;1.07;0.87;;;;;;;15.91;100.00;95234.56;5134828;27;20439;-60
2023/10/20 08:38:42;;;;;;;2.50;1.77;;;;;;;16.27;100.00;95284.16;5110754;27;20446;-59
2023/10/20 08:41:13;;;;;;;9.40;0.77;;;;;;;17.05;99.28;95272.00;5135805;27;20434;-60
2023/10/20 08:43:43;;;;;;;0.47;0.33;;;;;;;16.93;98.08;95269.88;5135444;27;20462;-59
2023/10/20 08:46:13;;;;;;;1.03;0.63;;;;;;;17.20;95.70;95271.56;5135088;27;20520;-60
2023/10/20 08:48:44;;;;;;;3.70;0.60;;;;;;;17.21;96.32;95275.78;5135423;27;20522;-59
2023/10/20 08:51:14;;;;;;;0.70;0.70;;;;;;;17.31;94.48;95262.09;5134768;27;20427;-60
2023/10/20 08:53:45;;;;;;;0.80;0.80;;;;;;;17.33;93.10;95275.97;5134504;27;20495;-59
2023/10/20 08:56:14;;;;;;;0.77;0.77;;;;;;;17.71;93.57;95265.50;5134830;27;20487;-59
2023/10/20 08:58:46;;;;;;;4.83;0.80;;;;;;;17.68;92.17;95260.78;5134951;27;20441;-59
2023/10/20 09:01:15;;;;;;;1.13;1.03;;;;;;;17.45;91.62;95264.66;5135033;27;20533;-59
2023/10/20 09:03:48;;;;;;;0.50;0.43;;;;;;;17.66;92.29;95271.81;5135118;27;20944;-59
2023/10/20 09:06:17;;;;;;;1.33;1.33;;;;;;;18.14;88.25;95230.63;5134902;27;20830;-59
2023/10/20 09:08:49;;;;;;;0.50;0.40;;;;;;;18.56;85.75;95256.59;5134303;27;20430;-60
2023/10/20 09:11:24;;;;;;;1.13;0.97;;;;;;;17.52;89.81;95252.41;5131097;27;20445;-59
2023/10/20 09:13:53;;;;;;;0.93;0.93;;;;;;;17.71;91.85;95268.97;5122184;27;20921;-59
2023/10/20 09:16:23;;;;;;;0.87;0.87;;;;;;;17.37;93.54;95254.72;5124002;27;20952;-59
2023/10/20 09:18:54;;;;;;;0.70;0.60;;;;;;;17.42;92.70;95263.41;5134400;27;20435;-59
2023/10/20 09:21:24;;;;;;;0.53;0.53;;;;;;;17.72;90.93;95213.47;5134903;27;20439;-58
2023/10/20 09:23:57;;;;;;;6.93;1.77;;;;;;;17.77;90.41;95256.19;5121005;27;20525;-58
2023/10/20 09:26:27;;;;;;;1.40;1.30;;;;;;;18.80;86.64;95256.03;5133848;27;20505;-59
2023/10/20 09:28:57;;;;;;;1.10;1.00;;;;;;;18.95;84.36;95256.28;5134560;27;20457;-59
2023/10/20 09:31:28;;;;;;;1.07;1.07;;;;;;;18.88;83.08;95231.81;5133883;27;20441;-58
2023/10/20 09:33:58;;;;;;;0.93;0.80;;;;;;;19.53;80.37;95241.28;5134532;27;20430;-58
2023/10/20 09:36:31;;;;;;;0.60;0.53;;;;;;;19.23;78.75;95251.22;5134283;27;20474;-58
2023/10/20 09:39:03;;;;;;;1.33;1.30;;;;;;;20.00;77.04;95245.34;5134979;27;20509;-59
2023/10/20 09:41:31;;;;;;;1.10;1.00;;;;;;;20.69;73.57;95240.09;5134165;27;20431;-59
2023/10/20 09:44:05;;;;;;;0.70;0.70;;;;;;;21.62;71.70;95241.06;5134045;27;20812;-60
2023/10/20 09:46:55;;;;;;;0.50;0.40;;;;;;;21.73;68.92;95232.16;5133877;27;20903;-60
2023/10/20 09:49:26;;;;;;;0.67;0.53;;;;;;;21.76;68.32;95228.00;5133663;27;20434;-59
2023/10/20 09:51:56;;;;;;;0.67;0.53;;;;;;;21.75;68.66;95235.31;5134663;27;20441;-60
2023/10/20 09:54:29;;;;;;;0.90;0.90;;;;;;;21.39;68.88;95179.56;5133464;27;20491;-59
2023/10/20 09:56:58;;;;;;;0.83;0.83;;;;;;;22.86;65.36;95215.59;5134338;27;20860;-58
2023/10/20 09:59:30;;;;;;;2.90;0.97;;;;;;;23.97;61.25;95213.88;5133894;27;20499;-58
2023/10/20 10:02:00;;;;;;;2.60;0.50;;;;;;;25.03;57.88;95202.28;5133850;27;20427;-58
2023/10/20 10:04:33;;;;;;;0.70;0.57;;;;;;;24.80;57.33;95212.38;5133506;27;20449;-58
2023/10/20 10:07:04;;;;;;;1.43;0.87;;;;;;;25.41;56.72;95192.38;5133958;27;20545;-57
2023/10/20 10:09:38;;;;;;;0.70;0.63;;;;;;;26.33;54.26;95208.75;5133901;27;20841;-56
2023/10/20 10:12:11;;;;;;;0.70;0.60;;;;;;;25.53;53.12;95195.69;5133571;27;20435;-56
2023/10/20 10:14:40;;;;;;;0.50;0.50;;;;;;;25.49;53.93;95197.59;5133395;27;20525;-57
2023/10/20 10:17:10;;;;;;;0.40;0.30;;;;;;;25.36;56.03;95196.19;5128790;27;20442;-56
2023/10/20 10:19:50;;;;;;;1.33;0.50;;;;;;;24.97;53.95;95179.31;5122498;27;20487;-56
2023/10/20 10:22:26;;;;;;;0.70;0.70;;;;;;;25.71;52.64;95183.16;5118372;27;20458;-56
2023/10/20 10:24:56;;;;;;;0.60;0.50;;;;;;;25.70;52.36;95173.44;5130629;27;20797;-56
2023/10/20 10:27:27;;;;;;;0.80;0.60;;;;;;;26.78;52.74;95169.63;5132543;27;20503;-56
2023/10/20 10:29:59;;;;;;;0.60;0.57;;;;;;;26.28;52.17;95164.84;5107635;27;20430;-56
2023/10/20 10:32:32;;;;;;;0.40;0.33;;;;;;;25.62;52.75;95160.94;5123005;27;20431;-56
2023/10/20 10:35:03;;;;;;;0.80;0.57;;;;;;;26.11;52.17;95158.00;5133191;27;20466;-56
2023/10/20 10:37:34;;;;;;;0.50;0.43;;;;;;;26.45;51.76;95156.06;5132976;27;20465;-56
2023/10/20 10:40:10;;;;;;;0.63;0.60;;;;;;;25.36;51.54;95143.88;5132698;27;20431;-56
2023/10/20 10:42:43;;;;;;;2.77;1.20;;;;;;;24.94;52.10;95149.47;5132818;27;20521;-56
2023/10/20 10:45:21;;;;;;;0.67;0.67;;;;;;;25.93;50.40;95086.44;5133637;27;20544;-56
2023/10/20 10:47:50;;;;;;;0.73;0.67;;;;;;;26.51;51.22;95148.38;5132916;27;20446;-57
2023/10/20 10:50:21;;;;;;;0.50;0.40;;;;;;;26.71;51.01;95147.00;5133093;27;20814;-56
2023/10/20 10:52:50;;;;;;;0.67;0.60;;;;;;;26.85;48.46;95095.44;5133177;27;20434;-56
2023/10/20 10:55:21;;;;;;;2.50;0.40;;;;;;;27.27;48.68;95144.72;5132815;27;20939;-57
2023/10/20 10:57:49;;;;;;;0.83;0.43;;;;;;;28.23;46.69;95133.09;5132810;27;20463;-56
2023/10/20 11:00:19;;;;;;;0.77;0.60;;;;;;;26.82;47.54;95148.66;5133170;27;20517;-57
2023/10/20 11:02:47;;;;;;;1.57;0.60;;;;;;;26.77;47.93;95126.47;5132982;27;20996;-57
2023/10/20 11:05:17;;;;;;;0.40;0.30;;;;;;;28.21;45.84;95118.31;5132862;27;20431;-56
2023/10/20 11:08:02;;;;;;;0.50;0.40;;;;;;;28.51;45.43;95124.22;5132575;27;20990;-57
2023/10/20 11:10:32;;;;;;;0.50;0.43;;;;;;;28.96;46.50;95111.78;5132098;27;20958;-56
2023/10/20 11:13:00;;;;;;;0.60;0.50;;;;;;;29.01;43.50;95113.31;5131894;27;20439;-57
2023/10/20 11:15:30;;;;;;;0.60;0.60;;;;;;;29.26;44.84;95100.44;5131507;27;20481;-57
2023/10/20 11:18:00;;;;;;;0.97;0.60;;;;;;;28.07;45.97;95115.56;5131991;27;20438;-58
2023/10/20 11:20:36;;;;;;;0.40;0.30;;;;;;;27.93;47.74;95104.59;5132310;27;20439;-58
2023/10/20 11:23:07;;;;;;;0.80;0.80;;;;;;;27.98;46.15;95106.94;5132146;27;20970;-57
2023/10/20 11:25:37;;;;;;;0.50;0.40;;;;;;;28.86;45.69;95101.66;5131819;27;20491;-57
2023/10/20 11:28:07;;;;;;;0.70;0.67;;;;;;;28.98;45.65;95081.34;5132695;27;20438;-58
2023/10/20 11:30:38;;;;;;;1.00;0.80;;;;;;;27.39;46.29;95111.78;5110043;28;20462;-58
2023/10/20 11:33:08;;;;;;;1.47;0.70;;;;;;;27.12;46.16;95106.91;5132280;28;20447;-58
2023/10/20 11:35:41;;;;;;;0.70;0.70;;;;;;;27.46;45.56;95103.63;5132256;28;20916;-58
2023/10/20 11:38:11;;;;;;;0.50;0.47;;;;;;;28.09;45.97;95094.16;5131992;28;20483;-58
2023/10/20 11:40:41;;;;;;;0.70;0.60;;;;;;;27.71;45.46;95090.13;5132344;28;20438;-58
2023/10/20 11:43:11;;;;;;;0.60;0.40;;;;;;;28.59;44.71;95092.28;5131749;28;20991;-58
2023/10/20 11:45:40;;;;;;;10.53;0.53;;;;;;;28.62;44.25;95084.13;5132084;28;20434;-57
2023/10/20 11:48:08;;;;;;;1.77;0.30;;;;;;;30.04;42.45;95049.03;5131512;28;20488;-57
2023/10/20 11:50:37;;;;;;;1.17;1.07;;;;;;;29.99;42.79;95083.03;5131977;28;20437;-58
2023/10/20 11:53:06;;;;;;;0.40;0.30;;;;;;;30.57;41.22;95078.75;5131958;28;20444;-57
2023/10/20 11:55:36;;;;;;;0.90;0.77;;;;;;;29.68;41.92;95074.97;5131986;28;20438;-57
2023/10/20 11:58:05;;;;;;;0.50;0.47;;;;;;;29.10;43.60;95075.47;5131966;28;20800;-58
2023/10/20 12:00:33;;;;;;;0.60;0.60;;;;;;;28.27;44.41;95070.44;5131530;28;20430;-57
2023/10/20 12:03:04;;;;;;;0.60;0.60;;;;;;;28.92;44.85;95067.31;5131544;28;20438;-64